Time;durP1;ratioP1;P1;durP2;ratioP2;P2;SDS_P1;SDS_P2;PMS_P1;PMS_P2;Temp;Humidity;BMP_temperature;BMP_pressure;BME280_temperature;BME280_humidity;BME280_pressure;Samples;Min_cycle;Max_cycle;Signal;HPM_P1;HPM_P2
2023/10/01 00:00:20;;;;;;;9.75;2.83;;;15.60;99.90;;;;;;5055084;28;19920;-69
2023/10/01 00:02:49;;;;;;;9.05;2.63;;;15.60;99.90;;;;;;5050332;28;20079;-68
2023/10/01 00:05:15;;;;;;;10.57;3.42;;;15.60;99.90;;;;;;5052052;28;20573;-67
2023/10/01 00:07:42;;;;;;;10.23;2.55;;;15.60;99.90;;;;;;5052002;28;20127;-68
2023/10/01 00:10:10;;;;;;;9.57;2.95;;;15.60;99.90;;;;;;5049668;28;20048;-67
2023/10/01 00:12:57;;;;;;;11.82;3.72;;;15.60;99.90;;;;;;5046543;28;20601;-68
2023/10/01 00:15:25;;;;;;;6.88;2.83;;;15.60;99.90;;;;;;5056526;28;20041;-68
2023/10/01 00:17:50;;;;;;;6.10;2.85;;;15.60;99.90;;;;;;5046443;28;20044;-68
2023/10/01 00:20:26;;;;;;;9.55;4.05;;;15.60;99.90;;;;;;5049965;28;20051;-69
2023/10/01 00:22:57;;;;;;;5.03;3.00;;;15.70;99.90;;;;;;5050198;28;20400;-68
2023/10/01 00:25:23;;;;;;;11.05;3.80;;;15.60;99.90;;;;;;5029820;28;20415;-67
2023/10/01 00:27:50;;;;;;;7.78;2.88;;;15.60;99.90;;;;;;5046530;28;20058;-68
2023/10/01 00:30:16;;;;;;;11.65;3.42;;;15.60;99.90;;;;;;5052705;28;20412;-68
2023/10/01 00:32:42;;;;;;;7.97;3.03;;;15.60;99.90;;;;;;5046100;28;20049;-68
2023/10/01 00:35:11;;;;;;;11.95;3.58;;;15.60;99.90;;;;;;5051189;28;20441;-68
2023/10/01 00:37:36;;;;;;;7.38;3.15;;;15.60;99.90;;;;;;5052653;28;20094;-68
2023/10/01 00:40:06;;;;;;;8.77;3.47;;;15.60;99.90;;;;;;5036575;28;20036;-69
2023/10/01 00:42:36;;;;;;;9.63;3.13;;;15.60;99.90;;;;;;5052787;28;20152;-68
2023/10/01 00:45:13;;;;;;;12.48;3.85;;;15.60;99.90;;;;;;5049523;28;20567;-67
2023/10/01 00:47:43;;;;;;;8.27;3.58;;;15.60;99.90;;;;;;5053184;28;20536;-68
2023/10/01 00:50:21;;;;;;;8.65;3.80;;;15.60;99.90;;;;;;5052843;28;20041;-68
2023/10/01 00:52:49;;;;;;;7.53;3.67;;;15.60;99.90;;;;;;5049207;28;20053;-68
2023/10/01 00:55:16;;;;;;;9.02;3.40;;;15.60;99.90;;;;;;5047243;28;20045;-68
2023/10/01 00:57:42;;;;;;;9.75;4.15;;;15.60;99.90;;;;;;5048404;28;20051;-68
2023/10/01 01:00:15;;;;;;;8.80;3.38;;;15.60;99.90;;;;;;5054586;28;20029;-68
2023/10/01 01:02:47;;;;;;;8.02;3.47;;;15.60;99.90;;;;;;5049872;28;20245;-67
2023/10/01 01:05:20;;;;;;;7.70;2.75;;;15.60;99.90;;;;;;5037915;28;20051;-67
2023/10/01 01:07:48;;;;;;;10.77;3.20;;;15.60;99.90;;;;;;5054277;28;20060;-68
2023/10/01 01:10:19;;;;;;;9.98;3.00;;;15.60;99.90;;;;;;5036362;28;20459;-68
2023/10/01 01:12:47;;;;;;;13.13;3.17;;;15.60;99.90;;;;;;5058371;28;20045;-68
2023/10/01 01:15:13;;;;;;;13.77;3.83;;;15.60;99.90;;;;;;5053779;28;20056;-68
2023/10/01 01:17:43;;;;;;;;;;;15.60;99.90;;;;;;5053583;28;20112;-68
2023/10/01 01:20:13;;;;;;;15.73;3.28;;;15.60;99.90;;;;;;5060939;28;19950;-68
2023/10/01 01:22:51;;;;;;;10.18;3.65;;;15.50;99.90;;;;;;5054389;28;20040;-68
2023/10/01 01:25:25;;;;;;;11.18;3.38;;;15.50;99.90;;;;;;5056818;28;20080;-68
2023/10/01 01:27:52;;;;;;;9.98;3.92;;;15.50;99.90;;;;;;5054081;28;20040;-68
2023/10/01 01:30:26;;;;;;;10.00;4.05;;;15.50;99.90;;;;;;5056799;28;20076;-68
2023/10/01 01:32:57;;;;;;;6.82;3.03;;;15.50;99.90;;;;;;5061596;28;20438;-68
2023/10/01 01:35:28;;;;;;;12.40;4.10;;;15.50;99.90;;;;;;5052518;28;20073;-67
2023/10/01 01:37:56;;;;;;;10.07;4.43;;;15.50;99.90;;;;;;5052518;28;20044;-68
2023/10/01 01:40:25;;;;;;;16.38;4.32;;;15.50;99.90;;;;;;5058177;28;20441;-74
2023/10/01 01:42:56;;;;;;;10.82;4.15;;;15.50;99.90;;;;;;5041050;28;20119;-67
2023/10/01 01:45:30;;;;;;;11.90;3.90;;;15.50;99.90;;;;;;5057110;28;20409;-67
2023/10/01 01:47:56;;;;;;;11.77;3.92;;;15.50;99.90;;;;;;5054888;28;20040;-68
2023/10/01 01:50:26;;;;;;;10.77;4.60;;;15.50;99.90;;;;;;5057170;28;20047;-67
2023/10/01 01:52:56;;;;;;;9.88;4.47;;;15.50;99.90;;;;;;5053003;28;20083;-67
2023/10/01 01:55:34;;;;;;;10.80;4.97;;;15.50;99.90;;;;;;5059731;28;20128;-68
2023/10/01 01:58:08;;;;;;;13.32;5.03;;;15.50;99.90;;;;;;5055045;28;20652;-67
2023/10/01 02:00:37;;;;;;;14.00;5.53;;;15.50;99.90;;;;;;5057437;28;20048;-67
2023/10/01 02:03:10;;;;;;;18.92;6.22;;;15.50;99.90;;;;;;5061674;28;20044;-78
2023/10/01 02:05:47;;;;;;;15.38;6.03;;;15.40;99.90;;;;;;5060193;28;20040;-78
2023/10/01 02:08:24;;;;;;;12.10;6.15;;;15.50;99.90;;;;;;5043405;28;20049;-78
2023/10/01 02:10:52;;;;;;;16.45;6.28;;;15.50;99.90;;;;;;5063807;28;20076;-78
2023/10/01 02:13:18;;;;;;;11.93;5.57;;;15.40;99.90;;;;;;5062671;28;20066;-78
2023/10/01 02:15:47;;;;;;;10.90;6.20;;;15.40;99.90;;;;;;5037632;28;20049;-78
2023/10/01 02:18:17;;;;;;;14.73;6.68;;;15.40;99.90;;;;;;5060828;28;20047;-78
2023/10/01 02:20:56;;;;;;;16.60;6.10;;;15.40;99.90;;;;;;5065574;28;20033;-78
2023/10/01 02:23:33;;;;;;;13.38;6.25;;;15.40;99.90;;;;;;5059415;28;20107;-78
2023/10/01 02:26:00;;;;;;;;;;;15.40;99.90;;;;;;5065486;28;20051;-80
2023/10/01 02:28:32;;;;;;;12.18;5.68;;;15.40;99.90;;;;;;5047228;28;20368;-78
2023/10/01 02:31:00;;;;;;;17.02;5.82;;;15.40;99.90;;;;;;5056622;28;20136;-77
2023/10/01 02:33:55;;;;;;;12.38;6.45;;;15.40;99.90;;;;;;5057741;28;20463;-77
2023/10/01 02:36:13;;;;;;;13.65;6.40;;;15.40;99.90;;;;;;5058738;28;20075;-77
2023/10/01 02:38:45;;;;;;;14.93;7.13;;;15.40;99.90;;;;;;5059210;28;20078;-78
2023/10/01 02:41:15;;;;;;;15.73;7.22;;;15.40;99.90;;;;;;5062191;28;20149;-77
2023/10/01 02:43:41;;;;;;;14.80;6.65;;;15.40;99.90;;;;;;5057491;28;20072;-78
2023/10/01 02:46:12;;;;;;;11.52;6.45;;;15.40;99.90;;;;;;5061329;28;20045;-77
2023/10/01 02:48:42;;;;;;;11.40;6.60;;;15.40;99.90;;;;;;5061373;28;20216;-77
2023/10/01 02:51:14;;;;;;;15.02;6.22;;;15.40;99.90;;;;;;5063592;28;20037;-78
2023/10/01 02:54:03;;;;;;;15.40;6.90;;;15.40;99.90;;;;;;5044800;28;20033;-78
2023/10/01 02:56:33;;;;;;;10.13;5.85;;;15.40;99.90;;;;;;5044463;28;20104;-78
2023/10/01 02:59:13;;;;;;;16.02;6.50;;;15.40;99.90;;;;;;5060543;28;20045;-78
2023/10/01 03:01:42;;;;;;;14.20;6.32;;;15.40;99.90;;;;;;5040474;28;20037;-77
2023/10/01 03:04:18;;;;;;;13.85;6.10;;;15.40;99.90;;;;;;5061769;28;20496;-78
2023/10/01 03:06:53;;;;;;;11.02;6.05;;;15.40;99.90;;;;;;5057430;28;20131;-78
2023/10/01 03:09:31;;;;;;;15.35;6.72;;;15.40;99.90;;;;;;5052812;28;20036;-77
2023/10/01 03:14:43;;;;;;;16.25;6.43;;;15.40;99.90;;;;;;5055477;28;20424;-78
2023/10/01 03:17:09;;;;;;;13.57;6.40;;;15.40;99.90;;;;;;5059578;28;20047;-78
2023/10/01 03:19:36;;;;;;;12.23;7.00;;;15.40;99.90;;;;;;5063781;28;20032;-78
2023/10/01 03:24:39;;;;;;;14.50;6.45;;;15.40;99.90;;;;;;5055303;28;20420;-77
2023/10/01 03:27:20;;;;;;;9.98;5.20;;;15.40;99.90;;;;;;5058036;28;20052;-78
2023/10/01 03:29:49;;;;;;;15.32;6.53;;;15.40;99.90;;;;;;5056063;28;20154;-77
2023/10/01 03:32:27;;;;;;;14.57;6.10;;;15.40;99.90;;;;;;5054180;28;20045;-77
2023/10/01 03:34:53;;;;;;;12.85;5.53;;;15.40;99.90;;;;;;5055587;28;20060;-77
2023/10/01 03:37:22;;;;;;;12.15;5.63;;;15.40;99.90;;;;;;5061317;28;20040;-78
2023/10/01 03:39:52;;;;;;;12.02;5.82;;;15.40;99.90;;;;;;5059885;28;20053;-78
2023/10/01 03:42:18;;;;;;;13.35;5.88;;;15.40;99.90;;;;;;5054458;28;20496;-77
2023/10/01 03:47:29;;;;;;;17.35;5.93;;;15.40;99.90;;;;;;5054003;28;20281;-78
2023/10/01 03:49:57;;;;;;;17.10;6.28;;;15.50;99.90;;;;;;5063304;28;20212;-77
2023/10/01 03:52:28;;;;;;;13.82;5.63;;;15.40;99.90;;;;;;5059081;28;20048;-77
2023/10/01 03:57:23;;;;;;;11.50;5.85;;;15.50;99.90;;;;;;5063075;28;20081;-78
2023/10/01 03:59:52;;;;;;;10.57;4.28;;;15.50;99.90;;;;;;5056610;28;20062;-78
2023/10/01 04:02:28;;;;;;;16.65;5.97;;;15.50;99.90;;;;;;5064837;28;20064;-78
2023/10/01 04:04:57;;;;;;;13.40;5.72;;;15.50;99.90;;;;;;5059557;28;20045;-78
2023/10/01 04:07:40;;;;;;;12.70;5.25;;;15.50;99.90;;;;;;5053407;28;20040;-78
2023/10/01 04:10:28;;;;;;;10.25;5.50;;;15.50;99.90;;;;;;5052484;28;20041;-77
2023/10/01 04:12:55;;;;;;;8.02;5.07;;;15.50;99.90;;;;;;5064296;28;20119;-77
2023/10/01 04:15:27;;;;;;;9.32;4.78;;;15.50;99.90;;;;;;5041105;28;20194;-77
2023/10/01 04:18:42;;;;;;;12.98;5.43;;;15.50;99.90;;;;;;5036032;28;20040;-77
2023/10/01 04:23:29;;;;;;;12.13;4.78;;;15.50;99.90;;;;;;5060456;28;20480;-78
2023/10/01 04:26:05;;;;;;;16.67;7.68;;;15.50;99.90;;;;;;5061028;28;20138;-79
2023/10/01 04:28:35;;;;;;;20.67;8.83;;;15.40;99.90;;;;;;5059440;28;20044;-79
2023/10/01 04:31:09;;;;;;;17.95;7.55;;;15.50;99.90;;;;;;5056164;28;20056;-79
2023/10/01 04:33:42;;;;;;;16.40;6.53;;;15.50;99.90;;;;;;5042314;28;20043;-79
2023/10/01 04:36:19;;;;;;;10.18;5.20;;;15.50;99.90;;;;;;5040998;28;20041;-79
2023/10/01 04:38:51;;;;;;;;;;;15.50;99.90;;;;;;5064254;28;20168;-79
2023/10/01 04:41:18;;;;;;;11.02;4.50;;;15.50;99.90;;;;;;5060876;28;20003;-80
2023/10/01 04:44:06;;;;;;;15.65;5.55;;;15.50;99.90;;;;;;5059452;28;20044;-79
2023/10/01 04:46:36;;;;;;;;;;;15.50;99.90;;;;;;5046766;28;20036;-79
2023/10/01 04:49:08;;;;;;;14.77;4.53;;;15.50;99.90;;;;;;5057057;28;20196;-79
2023/10/01 04:51:44;;;;;;;11.60;4.97;;;15.50;99.90;;;;;;5064706;28;20314;-81
2023/10/01 04:54:17;;;;;;;11.13;5.10;;;15.50;99.90;;;;;;5065836;28;20041;-79
2023/10/01 04:56:44;;;;;;;13.65;5.28;;;15.50;99.90;;;;;;5067574;28;20064;-79
2023/10/01 04:59:10;;;;;;;15.82;4.45;;;15.50;99.90;;;;;;5064769;28;20037;-79
2023/10/01 05:01:36;;;;;;;14.15;4.03;;;15.50;99.90;;;;;;5039813;28;20037;-79
2023/10/01 05:04:02;;;;;;;10.48;5.32;;;15.50;99.90;;;;;;5060111;28;20051;-79
2023/10/01 05:06:29;;;;;;;11.00;4.40;;;15.50;99.90;;;;;;5062294;28;20071;-79
2023/10/01 05:08:56;;;;;;;11.20;4.45;;;15.50;99.90;;;;;;5042643;28;20327;-79
2023/10/01 05:11:22;;;;;;;8.38;4.05;;;15.50;99.90;;;;;;5069357;28;20058;-80
2023/10/01 05:13:51;;;;;;;10.90;4.40;;;15.50;99.90;;;;;;5050445;28;20041;-79
2023/10/01 05:16:19;;;;;;;10.07;4.05;;;15.50;99.90;;;;;;5065189;28;20041;-80
2023/10/01 05:18:45;;;;;;;12.90;4.78;;;15.50;99.90;;;;;;5063591;28;20507;-79
2023/10/01 05:21:15;;;;;;;;;;;15.40;99.90;;;;;;5069910;28;20037;-79
2023/10/01 05:23:45;;;;;;;13.25;4.85;;;15.40;99.90;;;;;;5042607;28;19923;-79
2023/10/01 05:26:11;;;;;;;11.57;4.68;;;15.40;99.90;;;;;;5067830;28;20045;-78
2023/10/01 05:28:41;;;;;;;;;;;15.40;99.90;;;;;;5060623;28;20060;-79
2023/10/01 05:31:14;;;;;;;8.98;4.00;;;15.40;99.90;;;;;;5061174;28;19924;-77
2023/10/01 05:33:46;;;;;;;12.77;5.10;;;15.40;99.90;;;;;;5057295;28;20070;-77
2023/10/01 05:36:16;;;;;;;15.20;4.57;;;15.30;99.90;;;;;;5055707;28;20037;-77
2023/10/01 05:38:43;;;;;;;8.60;4.20;;;15.30;99.90;;;;;;5059836;28;20532;-77
2023/10/01 05:41:09;;;;;;;16.10;4.45;;;15.30;99.90;;;;;;5041612;28;20091;-77
2023/10/01 05:43:50;;;;;;;12.40;5.18;;;15.30;99.90;;;;;;5059344;28;20448;-76
2023/10/01 05:46:17;;;;;;;11.13;4.97;;;15.30;99.90;;;;;;5061320;28;20223;-77
2023/10/01 05:48:44;;;;;;;15.57;5.05;;;15.30;99.90;;;;;;5076849;28;20044;-77
2023/10/01 05:51:20;;;;;;;12.00;5.15;;;15.30;99.90;;;;;;5075148;28;20472;-77
2023/10/01 05:53:48;;;;;;;8.15;4.63;;;15.30;99.90;;;;;;5075449;28;20151;-77
2023/10/01 05:56:19;;;;;;;11.55;5.18;;;15.30;99.90;;;;;;5075650;28;20316;-77
2023/10/01 05:58:45;;;;;;;12.05;4.32;;;15.30;99.90;;;;;;5061165;28;20038;-77
2023/10/01 06:01:14;;;;;;;9.55;4.85;;;15.40;99.90;;;;;;5077069;28;20044;-77
2023/10/01 06:03:44;;;;;;;10.40;4.32;;;15.40;99.90;;;;;;5077291;28;20086;-77
2023/10/01 06:06:14;;;;;;;17.00;4.80;;;15.40;99.90;;;;;;5058164;28;20126;-77
2023/10/01 06:08:49;;;;;;;11.63;4.13;;;15.40;99.90;;;;;;5060860;28;20047;-77
2023/10/01 06:11:38;;;;;;;10.85;4.35;;;15.40;99.90;;;;;;5073776;28;20127;-77
2023/10/01 06:14:07;;;;;;;13.50;4.15;;;15.40;99.90;;;;;;5075460;28;20441;-78
2023/10/01 06:16:39;;;;;;;9.48;4.75;;;15.40;99.90;;;;;;5074518;28;20182;-77
2023/10/01 06:19:11;;;;;;;16.60;4.88;;;15.40;99.90;;;;;;5075774;28;20074;-77
2023/10/01 06:21:39;;;;;;;13.00;4.85;;;15.50;99.90;;;;;;5075491;28;20052;-77
2023/10/01 06:24:07;;;;;;;11.38;4.85;;;15.40;99.90;;;;;;5059108;28;20048;-78
2023/10/01 06:26:36;;;;;;;14.10;4.43;;;15.40;99.90;;;;;;5059186;28;20510;-77
2023/10/01 06:29:11;;;;;;;12.23;4.18;;;15.40;99.90;;;;;;5076263;28;20048;-77
2023/10/01 06:34:19;;;;;;;10.52;4.25;;;15.40;99.90;;;;;;5079190;28;20138;-77
2023/10/01 06:36:45;;;;;;;11.68;4.65;;;15.40;99.90;;;;;;5076079;28;20044;-77
2023/10/01 06:39:20;;;;;;;10.18;3.80;;;15.40;99.90;;;;;;5074048;28;20036;-77
2023/10/01 06:41:48;;;;;;;8.90;4.43;;;15.50;99.90;;;;;;5075304;28;20051;-77
2023/10/01 06:44:14;;;;;;;15.20;4.15;;;15.50;99.90;;;;;;5074172;28;20040;-77
2023/10/01 06:46:40;;;;;;;;;;;15.50;99.90;;;;;;5055581;28;20056;-76
2023/10/01 06:49:08;;;;;;;14.43;4.85;;;15.50;99.90;;;;;;5055049;28;20369;-77
2023/10/01 06:51:43;;;;;;;9.93;4.75;;;15.50;99.90;;;;;;5056157;28;20404;-77
2023/10/01 06:54:10;;;;;;;12.55;4.53;;;15.50;99.90;;;;;;5056137;28;20147;-76
2023/10/01 06:56:37;;;;;;;16.85;5.13;;;15.60;99.90;;;;;;5071735;28;20102;-77
2023/10/01 07:01:46;;;;;;;10.50;4.43;;;15.60;99.90;;;;;;5072422;28;20046;-77
2023/10/01 07:04:15;;;;;;;10.18;3.78;;;15.60;99.90;;;;;;5072068;28;20098;-76
2023/10/01 07:06:44;;;;;;;10.35;3.42;;;15.70;99.90;;;;;;5072618;28;20123;-77
2023/10/01 07:09:32;;;;;;;11.88;4.35;;;15.60;99.90;;;;;;5074091;28;20378;-76
2023/10/01 07:11:59;;;;;;;8.70;4.05;;;15.70;99.90;;;;;;5071495;28;20056;-77
2023/10/01 07:17:09;;;;;;;14.85;4.45;;;15.70;99.90;;;;;;5071246;28;19920;-77
2023/10/01 07:19:36;;;;;;;;;;;15.70;99.90;;;;;;5056208;28;20097;-76
2023/10/01 07:22:06;;;;;;;11.93;4.40;;;15.70;99.90;;;;;;5072156;28;19928;-77
2023/10/01 07:24:38;;;;;;;12.05;3.75;;;15.80;99.90;;;;;;5055510;28;20127;-77
2023/10/01 07:27:06;;;;;;;9.88;4.13;;;15.80;99.90;;;;;;5054339;28;20048;-76
2023/10/01 07:29:39;;;;;;;13.07;4.53;;;15.80;99.90;;;;;;5072975;28;20408;-77
2023/10/01 07:32:07;;;;;;;15.57;4.65;;;15.80;99.90;;;;;;5071665;28;20108;-77
2023/10/01 07:34:39;;;;;;;16.85;4.97;;;15.80;99.90;;;;;;5071678;28;20094;-77
2023/10/01 07:37:08;;;;;;;9.60;4.15;;;15.90;99.90;;;;;;5070304;28;20051;-77
2023/10/01 07:39:36;;;;;;;12.40;3.95;;;15.90;99.90;;;;;;5071371;28;20040;-76
2023/10/01 07:42:05;;;;;;;13.10;4.85;;;15.90;99.90;;;;;;5073175;28;20037;-76
2023/10/01 07:44:36;;;;;;;13.35;4.30;;;16.00;99.90;;;;;;5072273;28;20205;-77
2023/10/01 07:47:03;;;;;;;16.58;6.32;;;16.00;99.90;;;;;;5055634;28;20185;-77
2023/10/01 07:49:46;;;;;;;9.45;4.28;;;16.10;99.90;;;;;;5054655;28;20070;-76
2023/10/01 07:52:19;;;;;;;16.88;5.40;;;16.10;99.90;;;;;;5070276;28;20131;-77
2023/10/01 07:54:47;;;;;;;11.75;4.53;;;16.10;99.90;;;;;;5072108;28;20444;-77
2023/10/01 07:57:15;;;;;;;9.25;4.03;;;16.10;99.90;;;;;;5054477;28;20112;-76
2023/10/01 07:59:43;;;;;;;12.35;4.93;;;16.10;99.90;;;;;;5072152;28;20040;-77
2023/10/01 08:04:57;;;;;;;14.02;4.82;;;16.10;99.90;;;;;;5072194;28;20467;-77
2023/10/01 08:07:30;;;;;;;13.00;4.88;;;16.10;99.90;;;;;;5071821;28;20119;-77
2023/10/01 08:09:59;;;;;;;11.55;4.05;;;16.10;99.90;;;;;;5071687;28;20052;-76
2023/10/01 08:12:29;;;;;;;12.63;4.10;;;16.10;99.90;;;;;;5055723;28;20072;-77
2023/10/01 08:17:47;;;;;;;11.02;3.80;;;16.20;99.90;;;;;;5074697;28;20041;-77
2023/10/01 08:20:21;;;;;;;12.02;4.22;;;16.30;99.90;;;;;;5058920;28;20378;-77
2023/10/01 08:25:42;;;;;;;12.43;4.53;;;16.30;99.90;;;;;;5075234;28;20048;-76
2023/10/01 08:30:41;;;;;;;11.75;4.05;;;16.40;99.90;;;;;;5073341;28;20036;-77
2023/10/01 08:33:19;;;;;;;13.75;4.43;;;16.50;99.90;;;;;;5075786;28;20048;-77
2023/10/01 08:35:56;;;;;;;12.70;4.43;;;16.60;99.90;;;;;;5074473;28;20045;-77
2023/10/01 08:38:26;;;;;;;13.85;3.92;;;16.70;99.90;;;;;;5075270;28;20473;-76
2023/10/01 08:40:59;;;;;;;13.65;5.35;;;16.80;99.90;;;;;;5073885;28;20036;-77
2023/10/01 08:43:30;;;;;;;14.18;4.40;;;16.80;99.90;;;;;;5073689;28;20042;-77
2023/10/01 08:46:00;;;;;;;11.52;4.38;;;17.00;99.90;;;;;;5075066;28;20090;-77
2023/10/01 08:48:35;;;;;;;10.98;4.30;;;17.00;99.90;;;;;;5073707;28;20106;-77
2023/10/01 08:51:11;;;;;;;12.75;4.90;;;17.10;99.90;;;;;;5059485;28;20059;-77
2023/10/01 08:53:41;;;;;;;10.38;4.60;;;17.30;99.90;;;;;;5073963;28;20043;-77
2023/10/01 08:56:13;;;;;;;13.52;5.00;;;17.40;99.90;;;;;;5074486;28;20123;-77
2023/10/01 08:58:48;;;;;;;19.08;4.80;;;17.50;99.90;;;;;;5057727;28;20105;-77
2023/10/01 09:01:21;;;;;;;14.65;4.55;;;17.60;99.90;;;;;;5073351;28;20040;-76
2023/10/01 09:03:47;;;;;;;15.60;4.63;;;17.70;99.90;;;;;;5056615;28;20044;-76
2023/10/01 09:06:28;;;;;;;13.20;4.57;;;17.80;99.90;;;;;;5073448;28;20052;-77
2023/10/01 09:09:00;;;;;;;17.40;4.90;;;17.90;99.90;;;;;;5058376;28;20488;-76
2023/10/01 09:11:42;;;;;;;15.68;5.22;;;18.00;99.90;;;;;;5073799;28;20036;-77
2023/10/01 09:14:18;;;;;;;13.07;4.82;;;18.10;99.90;;;;;;5074193;28;20102;-77
2023/10/01 09:16:49;;;;;;;19.05;5.75;;;18.10;99.90;;;;;;5074115;28;20451;-77
2023/10/01 09:19:30;;;;;;;10.98;3.85;;;18.10;99.90;;;;;;5067020;28;20125;-79
2023/10/01 09:25:14;;;;;;;14.27;5.32;;;18.30;99.90;;;;;;5073691;28;20041;-77
2023/10/01 09:27:57;;;;;;;13.80;4.22;;;18.40;99.90;;;;;;5063296;28;20044;-76
2023/10/01 09:30:26;;;;;;;14.23;4.43;;;18.50;99.90;;;;;;5056209;28;20079;-79
2023/10/01 09:33:04;;;;;;;12.30;4.10;;;18.50;99.90;;;;;;5041559;28;20087;-78
2023/10/01 09:36:02;;;;;;;12.65;4.82;;;18.60;99.90;;;;;;5057167;28;20048;-77
2023/10/01 09:38:28;;;;;;;15.57;4.78;;;18.60;99.90;;;;;;5046866;28;20052;-77
2023/10/01 09:41:03;;;;;;;13.23;5.10;;;18.60;99.90;;;;;;5049500;28;20041;-76
2023/10/01 09:43:32;;;;;;;13.88;5.22;;;18.60;99.90;;;;;;5042073;28;20505;-80
2023/10/01 09:46:00;;;;;;;10.73;4.32;;;18.60;99.90;;;;;;5052393;28;20416;-77
2023/10/01 09:48:30;;;;;;;12.98;4.60;;;18.60;99.90;;;;;;5053582;28;20048;-77
2023/10/01 09:51:13;;;;;;;15.10;5.38;;;18.60;99.90;;;;;;5058079;28;20471;-76
2023/10/01 09:53:43;;;;;;;13.35;4.45;;;18.50;99.90;;;;;;5043683;28;20040;-77
2023/10/01 09:56:14;;;;;;;14.85;4.60;;;18.60;99.90;;;;;;5059935;28;20045;-77
2023/10/01 09:58:47;;;;;;;14.50;5.38;;;18.60;99.90;;;;;;5047193;28;20078;-77
2023/10/01 10:01:17;;;;;;;15.70;5.20;;;18.70;99.90;;;;;;5064068;28;20033;-77
2023/10/01 10:03:43;;;;;;;14.40;4.50;;;18.70;99.90;;;;;;5058368;28;20067;-77
2023/10/01 10:06:24;;;;;;;;;;;18.80;99.90;;;;;;5060949;28;20473;-77
2023/10/01 10:09:25;;;;;;;14.10;4.65;;;18.90;99.90;;;;;;5059767;28;19924;-80
2023/10/01 10:11:45;;;;;;;14.95;4.80;;;19.00;99.90;;;;;;5059402;28;20080;-78
2023/10/01 10:14:26;;;;;;;14.13;4.47;;;19.10;99.90;;;;;;5061351;28;20036;-78
2023/10/01 10:20:18;;;;;;;15.13;5.00;;;19.30;99.90;;;;;;5060148;28;20044;-80
2023/10/01 10:23:14;;;;;;;14.75;5.22;;;19.30;99.90;;;;;;5051120;28;20045;-78
2023/10/01 10:25:40;;;;;;;18.55;5.32;;;19.30;99.90;;;;;;5061932;28;20480;-77
2023/10/01 10:28:21;;;;;;;17.17;5.82;;;19.30;99.90;;;;;;5056284;28;20511;-77
2023/10/01 10:31:38;;;;;;;12.93;4.70;;;19.40;99.90;;;;;;5053042;28;20097;-78
2023/10/01 10:34:26;;;;;;;13.98;5.22;;;19.40;99.90;;;;;;5052698;28;20076;-77
2023/10/01 10:36:54;;;;;;;17.75;5.38;;;19.40;99.90;;;;;;5050907;28;20052;-78
2023/10/01 10:40:02;;;;;;;16.50;4.68;;;19.40;99.90;;;;;;5054147;28;20044;-78
2023/10/01 10:42:28;;;;;;;11.82;4.90;;;19.40;99.90;;;;;;5069750;28;20117;-77
2023/10/01 10:45:21;;;;;;;13.02;5.72;;;19.40;99.90;;;;;;5054732;28;20056;-78
2023/10/01 10:48:03;;;;;;;14.70;4.80;;;19.40;99.90;;;;;;5051957;28;20055;-76
2023/10/01 10:50:44;;;;;;;11.82;4.70;;;19.40;99.90;;;;;;5053399;28;20052;-77
2023/10/01 10:53:20;;;;;;;13.38;4.65;;;19.40;99.90;;;;;;5049252;28;20563;-78
2023/10/01 10:56:13;;;;;;;12.50;4.82;;;19.50;99.90;;;;;;5046979;28;20102;-77
2023/10/01 10:59:05;;;;;;;18.70;5.90;;;19.60;99.90;;;;;;5054529;28;20044;-77
2023/10/01 11:01:43;;;;;;;16.20;5.35;;;19.60;99.90;;;;;;5040473;28;20040;-78
2023/10/01 11:04:09;;;;;;;18.27;6.55;;;19.60;99.90;;;;;;5053856;28;20087;-77
2023/10/01 11:06:42;;;;;;;18.08;5.78;;;19.70;99.90;;;;;;5055992;28;20484;-77
2023/10/01 11:09:27;;;;;;;16.05;5.28;;;19.70;99.90;;;;;;5040655;28;20062;-78
2023/10/01 11:11:52;;;;;;;11.95;4.40;;;19.70;99.90;;;;;;5042754;28;20540;-79
2023/10/01 11:14:20;;;;;;;18.63;6.13;;;19.70;99.90;;;;;;5052201;28;20076;-76
2023/10/01 11:16:47;;;;;;;12.38;4.82;;;19.70;99.90;;;;;;5046601;28;20045;-79
2023/10/01 11:19:16;;;;;;;13.80;5.55;;;19.70;99.90;;;;;;5049542;28;20294;-77
2023/10/01 11:21:55;;;;;;;12.55;5.45;;;19.70;99.90;;;;;;5042290;28;20041;-75
2023/10/01 11:24:42;;;;;;;13.50;4.68;;;19.80;99.90;;;;;;5038797;28;20098;-78
2023/10/01 11:27:19;;;;;;;21.35;6.07;;;19.90;99.90;;;;;;5057868;28;20153;-79
2023/10/01 11:29:56;;;;;;;15.68;6.28;;;20.00;99.90;;;;;;5047840;28;20071;-77
2023/10/01 11:32:57;;;;;;;13.75;5.47;;;20.10;99.90;;;;;;5037667;28;20050;-76
2023/10/01 11:35:34;;;;;;;19.95;6.47;;;20.10;99.90;;;;;;5056092;28;20540;-76
2023/10/01 11:38:21;;;;;;;13.48;4.75;;;20.30;99.90;;;;;;5028791;28;20566;-76
2023/10/01 11:41:07;;;;;;;15.13;5.70;;;20.30;99.90;;;;;;5050415;28;20056;-78
2023/10/01 11:43:58;;;;;;;14.03;4.93;;;20.40;99.90;;;;;;5038300;28;20047;-76
2023/10/01 11:49:32;;;;;;;;;;;20.40;99.90;;;;;;5052748;28;20047;-77
2023/10/01 11:52:25;;;;;;;14.85;4.75;;;20.50;99.90;;;;;;5032898;28;19940;-76
2023/10/01 11:54:54;;;;;;;16.52;5.75;;;20.50;99.90;;;;;;5054135;28;20040;-78
2023/10/01 11:57:31;;;;;;;14.27;5.45;;;20.60;99.90;;;;;;5056847;28;20037;-75
2023/10/01 12:00:00;;;;;;;16.15;5.13;;;20.60;99.90;;;;;;5052756;28;20413;-77
2023/10/01 12:02:32;;;;;;;13.48;5.50;;;20.70;99.90;;;;;;5055991;28;20503;-76
2023/10/01 12:05:03;;;;;;;15.13;5.63;;;20.80;99.90;;;;;;5050846;28;20118;-78
2023/10/01 12:07:39;;;;;;;15.55;5.65;;;20.80;99.90;;;;;;5055615;28;20036;-76
2023/10/01 12:10:31;;;;;;;12.25;5.00;;;20.80;99.90;;;;;;5058181;28;20499;-76
2023/10/01 12:12:55;;;;;;;16.15;5.05;;;20.90;99.90;;;;;;5046457;28;20439;-76
2023/10/01 12:15:40;;;;;;;14.98;5.45;;;21.00;99.90;;;;;;5048870;28;20056;-79
2023/10/01 12:18:17;;;;;;;12.82;4.60;;;21.10;99.90;;;;;;5035058;28;20212;-74
2023/10/01 12:20:50;;;;;;;13.43;5.97;;;21.20;99.90;;;;;;5055582;28;20056;-75
2023/10/01 12:23:19;;;;;;;17.20;6.15;;;21.30;99.90;;;;;;5057122;28;20083;-77
2023/10/01 12:25:57;;;;;;;14.45;6.00;;;21.50;99.90;;;;;;5041594;28;20052;-76
2023/10/01 12:28:25;;;;;;;15.27;5.65;;;21.60;99.90;;;;;;5037409;28;20044;-76
2023/10/01 12:31:09;;;;;;;17.25;6.20;;;21.80;99.90;;;;;;5040619;28;20072;-74
2023/10/01 12:33:40;;;;;;;20.85;6.72;;;21.90;99.90;;;;;;5054992;28;20408;-75
2023/10/01 12:44:34;;;;;;;16.50;6.22;;;21.70;99.90;;;;;;5057564;28;20528;-76
2023/10/01 12:47:07;;;;;;;15.80;5.95;;;21.60;99.90;;;;;;5075848;28;20493;-75
2023/10/01 12:49:33;;;;;;;16.70;6.43;;;21.50;99.90;;;;;;5053764;28;20040;-75
2023/10/01 12:52:04;;;;;;;18.23;6.63;;;21.40;99.90;;;;;;5053793;28;20173;-75
2023/10/01 12:54:36;;;;;;;14.02;5.53;;;21.30;99.90;;;;;;5036605;28;20515;-75
2023/10/01 12:57:22;;;;;;;16.70;6.22;;;21.30;99.90;;;;;;5040259;28;20551;-76
2023/10/01 13:00:21;;;;;;;19.02;5.78;;;21.30;99.90;;;;;;5055781;28;20041;-75
2023/10/01 13:02:47;;;;;;;15.45;5.88;;;21.30;99.90;;;;;;5060345;28;20032;-75
2023/10/01 13:05:23;;;;;;;18.63;5.80;;;21.40;99.90;;;;;;5051570;28;20682;-77
2023/10/01 13:07:50;;;;;;;17.48;6.40;;;21.40;99.90;;;;;;5040607;28;20048;-76
2023/10/01 13:10:18;;;;;;;12.77;5.95;;;21.50;99.90;;;;;;5062482;28;20040;-77
2023/10/01 13:12:56;;;;;;;20.27;6.70;;;21.50;99.90;;;;;;5053462;28;20041;-77
2023/10/01 13:15:33;;;;;;;13.35;5.53;;;21.50;99.90;;;;;;5055569;28;20041;-78
2023/10/01 13:18:00;;;;;;;16.65;5.70;;;21.60;99.90;;;;;;5047948;28;20419;-76
2023/10/01 13:20:28;;;;;;;14.38;5.45;;;21.60;99.90;;;;;;5056843;28;20521;-75
2023/10/01 13:23:06;;;;;;;17.88;5.82;;;21.80;99.90;;;;;;5054425;28;20423;-76
2023/10/01 13:25:39;;;;;;;14.18;5.68;;;21.80;99.90;;;;;;5056379;28;20059;-76
2023/10/01 13:28:05;;;;;;;15.77;5.88;;;21.90;99.90;;;;;;5058016;28;20363;-76
2023/10/01 13:30:52;;;;;;;13.32;5.57;;;22.00;99.90;;;;;;5041955;28;20059;-76
2023/10/01 13:33:19;;;;;;;17.40;6.28;;;22.20;99.90;;;;;;5058869;28;20083;-76
2023/10/01 13:35:52;;;;;;;16.23;5.90;;;22.20;99.90;;;;;;5049371;28;20072;-76
2023/10/01 13:38:37;;;;;;;15.23;5.82;;;22.10;99.90;;;;;;5052207;28;20045;-76
2023/10/01 14:11:10;;;;;;;16.10;5.88;;;21.30;99.90;;;;;;5057625;28;20044;-76
2023/10/01 14:13:36;;;;;;;18.25;7.18;;;21.30;99.90;;;;;;5055723;28;20041;-77
2023/10/01 14:19:13;;;;;;;14.57;5.95;;;21.10;99.90;;;;;;5047954;28;19980;-77
2023/10/01 14:21:42;;;;;;;15.18;6.07;;;21.10;99.90;;;;;;5052744;28;20127;-76
2023/10/01 14:24:26;;;;;;;15.38;5.43;;;21.20;99.90;;;;;;5037208;28;20170;-77
2023/10/01 14:26:55;;;;;;;12.80;5.53;;;21.30;99.90;;;;;;5052138;28;20483;-77
2023/10/01 14:29:24;;;;;;;13.85;5.75;;;21.30;99.90;;;;;;5052708;28;20044;-76
2023/10/01 14:31:54;;;;;;;15.18;6.30;;;21.30;99.90;;;;;;5049350;28;20479;-77